sensor_id;sensor_type;location;lat;lon;timestamp;P1;durP1;ratioP1;P2;durP2;ratioP2
1679;SDS011;838;51.794;12.258;2022-12-18T00:00:31;70.93;;;26.80;;
1679;SDS011;838;51.794;12.258;2022-12-18T00:02:57;60.43;;;26.00;;
1679;SDS011;838;51.794;12.258;2022-12-18T00:05:23;63.20;;;26.03;;
1679;SDS011;838;51.794;12.258;2022-12-18T00:07:49;77.00;;;25.60;;
1679;SDS011;838;51.794;12.258;2022-12-18T00:10:17;56.63;;;23.20;;
1679;SDS011;838;51.794;12.258;2022-12-18T00:12:43;56.60;;;24.97;;
1679;SDS011;838;51.794;12.258;2022-12-18T00:15:09;55.33;;;23.10;;
1679;SDS011;838;51.794;12.258;2022-12-18T00:17:34;70.97;;;25.97;;
1679;SDS011;838;51.794;12.258;2022-12-18T00:20:00;49.60;;;24.30;;
1679;SDS011;838;51.794;12.258;2022-12-18T00:22:26;33.03;;;17.00;;
1679;SDS011;838;51.794;12.258;2022-12-18T00:24:51;50.93;;;21.60;;
1679;SDS011;838;51.794;12.258;2022-12-18T00:27:17;62.17;;;25.90;;
1679;SDS011;838;51.794;12.258;2022-12-18T00:29:42;59.47;;;26.73;;
1679;SDS011;838;51.794;12.258;2022-12-18T00:32:09;46.57;;;21.03;;
1679;SDS011;838;51.794;12.258;2022-12-18T00:34:35;63.93;;;27.33;;
1679;SDS011;838;51.794;12.258;2022-12-18T00:37:01;56.07;;;25.60;;
1679;SDS011;838;51.794;12.258;2022-12-18T00:39:26;64.40;;;25.63;;
1679;SDS011;838;51.794;12.258;2022-12-18T00:41:52;65.80;;;25.37;;
1679;SDS011;838;51.794;12.258;2022-12-18T00:44:36;69.73;;;26.33;;
1679;SDS011;838;51.794;12.258;2022-12-18T00:47:02;66.80;;;25.50;;
1679;SDS011;838;51.794;12.258;2022-12-18T00:49:27;62.83;;;27.40;;
1679;SDS011;838;51.794;12.258;2022-12-18T00:51:54;69.13;;;28.20;;
1679;SDS011;838;51.794;12.258;2022-12-18T00:54:20;66.93;;;25.50;;
1679;SDS011;838;51.794;12.258;2022-12-18T00:56:45;60.80;;;26.37;;
1679;SDS011;838;51.794;12.258;2022-12-18T00:59:11;60.27;;;22.10;;
1679;SDS011;838;51.794;12.258;2022-12-18T01:01:37;38.00;;;15.80;;
1679;SDS011;838;51.794;12.258;2022-12-18T01:04:03;62.00;;;23.27;;
1679;SDS011;838;51.794;12.258;2022-12-18T01:06:29;57.07;;;20.87;;
1679;SDS011;838;51.794;12.258;2022-12-18T01:08:55;63.90;;;22.53;;
1679;SDS011;838;51.794;12.258;2022-12-18T01:11:21;50.10;;;22.17;;
1679;SDS011;838;51.794;12.258;2022-12-18T01:13:46;63.10;;;22.93;;
1679;SDS011;838;51.794;12.258;2022-12-18T01:16:13;52.87;;;24.00;;
1679;SDS011;838;51.794;12.258;2022-12-18T01:18:39;53.00;;;23.77;;
1679;SDS011;838;51.794;12.258;2022-12-18T01:21:06;69.50;;;26.00;;
1679;SDS011;838;51.794;12.258;2022-12-18T01:23:37;47.23;;;22.47;;
1679;SDS011;838;51.794;12.258;2022-12-18T01:26:10;57.27;;;25.60;;
1679;SDS011;838;51.794;12.258;2022-12-18T01:28:39;66.27;;;24.33;;
1679;SDS011;838;51.794;12.258;2022-12-18T01:31:09;61.60;;;26.47;;
1679;SDS011;838;51.794;12.258;2022-12-18T01:33:43;61.57;;;25.17;;
1679;SDS011;838;51.794;12.258;2022-12-18T01:36:14;55.73;;;23.50;;
1679;SDS011;838;51.794;12.258;2022-12-18T01:38:42;57.60;;;23.97;;
1679;SDS011;838;51.794;12.258;2022-12-18T01:41:08;64.20;;;26.50;;
1679;SDS011;838;51.794;12.258;2022-12-18T01:43:53;55.63;;;21.57;;
1679;SDS011;838;51.794;12.258;2022-12-18T01:46:24;66.93;;;24.87;;
1679;SDS011;838;51.794;12.258;2022-12-18T01:48:55;40.17;;;17.73;;
1679;SDS011;838;51.794;12.258;2022-12-18T01:51:24;63.67;;;22.90;;
1679;SDS011;838;51.794;12.258;2022-12-18T01:53:52;66.37;;;27.47;;
1679;SDS011;838;51.794;12.258;2022-12-18T01:56:18;66.30;;;25.53;;
1679;SDS011;838;51.794;12.258;2022-12-18T02:01:28;64.37;;;25.00;;
1679;SDS011;838;51.794;12.258;2022-12-18T02:03:55;51.63;;;22.97;;
1679;SDS011;838;51.794;12.258;2022-12-18T02:06:24;59.17;;;26.20;;
1679;SDS011;838;51.794;12.258;2022-12-18T02:09:02;62.40;;;25.43;;
1679;SDS011;838;51.794;12.258;2022-12-18T02:14:28;55.50;;;22.90;;
1679;SDS011;838;51.794;12.258;2022-12-18T02:17:09;37.83;;;19.40;;
1679;SDS011;838;51.794;12.258;2022-12-18T02:27:42;56.23;;;23.03;;
1679;SDS011;838;51.794;12.258;2022-12-18T02:30:11;51.07;;;19.20;;
1679;SDS011;838;51.794;12.258;2022-12-18T02:32:38;67.47;;;25.47;;
1679;SDS011;838;51.794;12.258;2022-12-18T02:35:08;55.77;;;23.77;;
1679;SDS011;838;51.794;12.258;2022-12-18T02:37:38;57.17;;;19.87;;
1679;SDS011;838;51.794;12.258;2022-12-18T02:40:05;57.60;;;21.70;;
1679;SDS011;838;51.794;12.258;2022-12-18T02:42:32;64.00;;;26.20;;
1679;SDS011;838;51.794;12.258;2022-12-18T02:44:58;54.43;;;19.70;;
1679;SDS011;838;51.794;12.258;2022-12-18T02:47:24;42.83;;;21.87;;
1679;SDS011;838;51.794;12.258;2022-12-18T02:50:02;32.33;;;15.70;;
1679;SDS011;838;51.794;12.258;2022-12-18T02:58:05;53.73;;;23.00;;
1679;SDS011;838;51.794;12.258;2022-12-18T03:00:50;94.97;;;23.77;;
1679;SDS011;838;51.794;12.258;2022-12-18T03:03:39;63.40;;;29.53;;
1679;SDS011;838;51.794;12.258;2022-12-18T03:06:28;60.07;;;25.37;;
1679;SDS011;838;51.794;12.258;2022-12-18T03:09:02;48.13;;;22.90;;
1679;SDS011;838;51.794;12.258;2022-12-18T03:11:33;50.30;;;24.90;;
1679;SDS011;838;51.794;12.258;2022-12-18T03:14:21;43.27;;;20.83;;
1679;SDS011;838;51.794;12.258;2022-12-18T03:16:50;58.57;;;25.17;;
1679;SDS011;838;51.794;12.258;2022-12-18T03:19:21;69.33;;;27.83;;
1679;SDS011;838;51.794;12.258;2022-12-18T03:21:51;53.57;;;24.93;;
1679;SDS011;838;51.794;12.258;2022-12-18T03:24:20;52.53;;;26.27;;
1679;SDS011;838;51.794;12.258;2022-12-18T03:26:50;57.60;;;25.33;;
1679;SDS011;838;51.794;12.258;2022-12-18T03:29:38;49.77;;;23.63;;
1679;SDS011;838;51.794;12.258;2022-12-18T03:32:15;55.00;;;22.13;;
1679;SDS011;838;51.794;12.258;2022-12-18T03:35:04;53.77;;;24.37;;
1679;SDS011;838;51.794;12.258;2022-12-18T03:37:31;49.57;;;23.47;;
1679;SDS011;838;51.794;12.258;2022-12-18T03:39:56;47.93;;;22.40;;
1679;SDS011;838;51.794;12.258;2022-12-18T03:42:28;48.93;;;23.60;;
1679;SDS011;838;51.794;12.258;2022-12-18T03:45:06;42.40;;;21.20;;
1679;SDS011;838;51.794;12.258;2022-12-18T03:50:21;47.57;;;24.77;;
1679;SDS011;838;51.794;12.258;2022-12-18T03:53:14;62.77;;;28.10;;
1679;SDS011;838;51.794;12.258;2022-12-18T03:56:05;54.50;;;26.33;;
1679;SDS011;838;51.794;12.258;2022-12-18T03:58:33;59.80;;;27.00;;
1679;SDS011;838;51.794;12.258;2022-12-18T04:01:01;55.90;;;23.03;;
1679;SDS011;838;51.794;12.258;2022-12-18T04:03:30;47.33;;;21.43;;
1679;SDS011;838;51.794;12.258;2022-12-18T04:05:59;55.30;;;27.30;;
1679;SDS011;838;51.794;12.258;2022-12-18T04:08:26;56.30;;;25.97;;
1679;SDS011;838;51.794;12.258;2022-12-18T04:10:53;51.03;;;27.07;;
1679;SDS011;838;51.794;12.258;2022-12-18T04:13:23;55.90;;;24.53;;
1679;SDS011;838;51.794;12.258;2022-12-18T04:15:50;51.47;;;26.83;;
1679;SDS011;838;51.794;12.258;2022-12-18T04:18:15;32.70;;;18.37;;
1679;SDS011;838;51.794;12.258;2022-12-18T04:20:41;51.90;;;27.67;;
1679;SDS011;838;51.794;12.258;2022-12-18T04:23:07;55.63;;;27.67;;
1679;SDS011;838;51.794;12.258;2022-12-18T04:25:32;56.03;;;26.27;;
1679;SDS011;838;51.794;12.258;2022-12-18T04:27:58;54.27;;;28.37;;
1679;SDS011;838;51.794;12.258;2022-12-18T04:30:24;43.37;;;22.50;;
1679;SDS011;838;51.794;12.258;2022-12-18T04:32:50;53.87;;;29.10;;
1679;SDS011;838;51.794;12.258;2022-12-18T04:35:15;62.87;;;24.20;;
1679;SDS011;838;51.794;12.258;2022-12-18T04:37:41;61.93;;;27.00;;
1679;SDS011;838;51.794;12.258;2022-12-18T04:40:07;47.40;;;24.77;;
1679;SDS011;838;51.794;12.258;2022-12-18T04:42:33;48.27;;;25.67;;
1679;SDS011;838;51.794;12.258;2022-12-18T04:44:59;43.57;;;21.23;;
1679;SDS011;838;51.794;12.258;2022-12-18T04:47:24;50.83;;;23.07;;
1679;SDS011;838;51.794;12.258;2022-12-18T04:49:50;49.97;;;24.60;;
1679;SDS011;838;51.794;12.258;2022-12-18T04:52:16;49.87;;;26.27;;
1679;SDS011;838;51.794;12.258;2022-12-18T04:54:41;56.37;;;22.23;;
1679;SDS011;838;51.794;12.258;2022-12-18T04:57:07;45.53;;;22.80;;
1679;SDS011;838;51.794;12.258;2022-12-18T04:59:33;51.70;;;26.57;;
1679;SDS011;838;51.794;12.258;2022-12-18T05:01:58;41.63;;;21.30;;
1679;SDS011;838;51.794;12.258;2022-12-18T05:04:24;51.23;;;23.20;;
1679;SDS011;838;51.794;12.258;2022-12-18T05:06:50;49.47;;;23.47;;
1679;SDS011;838;51.794;12.258;2022-12-18T05:09:15;41.50;;;20.80;;
1679;SDS011;838;51.794;12.258;2022-12-18T05:11:41;41.13;;;22.97;;
1679;SDS011;838;51.794;12.258;2022-12-18T05:14:07;48.83;;;23.20;;
1679;SDS011;838;51.794;12.258;2022-12-18T05:16:32;51.50;;;22.93;;
1679;SDS011;838;51.794;12.258;2022-12-18T05:18:58;49.50;;;21.57;;
1679;SDS011;838;51.794;12.258;2022-12-18T05:21:24;43.50;;;21.10;;
1679;SDS011;838;51.794;12.258;2022-12-18T05:23:50;48.07;;;23.63;;
1679;SDS011;838;51.794;12.258;2022-12-18T05:26:16;44.67;;;21.57;;
1679;SDS011;838;51.794;12.258;2022-12-18T05:28:43;42.83;;;20.27;;
1679;SDS011;838;51.794;12.258;2022-12-18T05:31:09;34.53;;;19.57;;
1679;SDS011;838;51.794;12.258;2022-12-18T05:33:35;46.20;;;20.20;;
1679;SDS011;838;51.794;12.258;2022-12-18T05:36:03;42.77;;;19.00;;
1679;SDS011;838;51.794;12.258;2022-12-18T05:38:31;44.07;;;18.77;;
1679;SDS011;838;51.794;12.258;2022-12-18T05:40:58;42.67;;;20.83;;
1679;SDS011;838;51.794;12.258;2022-12-18T05:43:25;44.07;;;22.17;;
1679;SDS011;838;51.794;12.258;2022-12-18T05:45:51;42.10;;;22.10;;
1679;SDS011;838;51.794;12.258;2022-12-18T05:48:18;34.53;;;20.47;;
1679;SDS011;838;51.794;12.258;2022-12-18T05:50:44;45.50;;;21.23;;
1679;SDS011;838;51.794;12.258;2022-12-18T05:53:11;40.43;;;19.20;;
1679;SDS011;838;51.794;12.258;2022-12-18T05:55:39;36.23;;;18.63;;
1679;SDS011;838;51.794;12.258;2022-12-18T05:58:06;42.17;;;18.60;;
1679;SDS011;838;51.794;12.258;2022-12-18T06:00:34;26.40;;;15.93;;
1679;SDS011;838;51.794;12.258;2022-12-18T06:03:04;25.80;;;11.87;;
1679;SDS011;838;51.794;12.258;2022-12-18T06:05:34;36.67;;;17.77;;
1679;SDS011;838;51.794;12.258;2022-12-18T06:08:02;32.50;;;16.53;;
1679;SDS011;838;51.794;12.258;2022-12-18T06:10:27;31.27;;;14.50;;
1679;SDS011;838;51.794;12.258;2022-12-18T06:12:53;39.13;;;16.53;;
1679;SDS011;838;51.794;12.258;2022-12-18T06:15:19;36.07;;;16.90;;
1679;SDS011;838;51.794;12.258;2022-12-18T06:17:44;38.43;;;17.37;;
1679;SDS011;838;51.794;12.258;2022-12-18T06:20:10;26.13;;;13.00;;
1679;SDS011;838;51.794;12.258;2022-12-18T06:22:36;53.80;;;20.90;;
1679;SDS011;838;51.794;12.258;2022-12-18T06:25:01;36.60;;;19.47;;
1679;SDS011;838;51.794;12.258;2022-12-18T06:27:28;43.20;;;19.43;;
1679;SDS011;838;51.794;12.258;2022-12-18T06:29:54;44.07;;;17.40;;
1679;SDS011;838;51.794;12.258;2022-12-18T06:32:19;28.07;;;13.87;;
1679;SDS011;838;51.794;12.258;2022-12-18T06:34:45;36.73;;;17.90;;
1679;SDS011;838;51.794;12.258;2022-12-18T06:37:11;41.50;;;17.17;;
1679;SDS011;838;51.794;12.258;2022-12-18T06:39:36;37.77;;;17.27;;
1679;SDS011;838;51.794;12.258;2022-12-18T06:42:03;39.90;;;17.80;;
1679;SDS011;838;51.794;12.258;2022-12-18T06:44:28;31.77;;;16.47;;
1679;SDS011;838;51.794;12.258;2022-12-18T06:46:54;27.87;;;13.77;;
1679;SDS011;838;51.794;12.258;2022-12-18T06:49:20;30.07;;;14.43;;
1679;SDS011;838;51.794;12.258;2022-12-18T06:51:46;37.67;;;19.60;;
1679;SDS011;838;51.794;12.258;2022-12-18T06:54:12;28.57;;;13.50;;
1679;SDS011;838;51.794;12.258;2022-12-18T06:56:38;33.17;;;16.83;;
1679;SDS011;838;51.794;12.258;2022-12-18T06:59:03;33.27;;;15.63;;
1679;SDS011;838;51.794;12.258;2022-12-18T07:01:29;24.83;;;14.03;;
1679;SDS011;838;51.794;12.258;2022-12-18T07:03:55;36.80;;;16.57;;
1679;SDS011;838;51.794;12.258;2022-12-18T07:06:23;32.83;;;16.67;;
1679;SDS011;838;51.794;12.258;2022-12-18T07:08:50;41.27;;;16.13;;
1679;SDS011;838;51.794;12.258;2022-12-18T07:11:17;45.33;;;19.27;;
1679;SDS011;838;51.794;12.258;2022-12-18T07:13:43;32.53;;;15.33;;
1679;SDS011;838;51.794;12.258;2022-12-18T07:16:14;35.03;;;17.03;;
1679;SDS011;838;51.794;12.258;2022-12-18T07:18:42;35.53;;;17.03;;
1679;SDS011;838;51.794;12.258;2022-12-18T07:21:09;33.67;;;18.30;;
1679;SDS011;838;51.794;12.258;2022-12-18T07:23:38;32.00;;;16.80;;
1679;SDS011;838;51.794;12.258;2022-12-18T07:26:04;39.43;;;17.37;;
1679;SDS011;838;51.794;12.258;2022-12-18T07:28:32;40.90;;;17.93;;
1679;SDS011;838;51.794;12.258;2022-12-18T07:31:01;28.90;;;11.23;;
1679;SDS011;838;51.794;12.258;2022-12-18T07:33:28;45.93;;;21.07;;
1679;SDS011;838;51.794;12.258;2022-12-18T07:35:54;31.07;;;17.87;;
1679;SDS011;838;51.794;12.258;2022-12-18T07:38:19;37.73;;;17.30;;
1679;SDS011;838;51.794;12.258;2022-12-18T07:40:47;43.17;;;19.70;;
1679;SDS011;838;51.794;12.258;2022-12-18T07:43:12;37.23;;;18.57;;
1679;SDS011;838;51.794;12.258;2022-12-18T07:45:38;45.90;;;19.83;;
1679;SDS011;838;51.794;12.258;2022-12-18T07:48:04;43.93;;;19.80;;
1679;SDS011;838;51.794;12.258;2022-12-18T07:50:29;44.00;;;19.00;;
1679;SDS011;838;51.794;12.258;2022-12-18T07:52:55;43.47;;;19.53;;
1679;SDS011;838;51.794;12.258;2022-12-18T07:55:21;45.50;;;20.07;;
1679;SDS011;838;51.794;12.258;2022-12-18T07:57:47;37.03;;;17.20;;
1679;SDS011;838;51.794;12.258;2022-12-18T08:00:13;35.43;;;17.07;;
1679;SDS011;838;51.794;12.258;2022-12-18T08:02:39;39.40;;;18.30;;
1679;SDS011;838;51.794;12.258;2022-12-18T08:05:05;40.73;;;18.73;;
1679;SDS011;838;51.794;12.258;2022-12-18T08:07:30;36.97;;;20.77;;
1679;SDS011;838;51.794;12.258;2022-12-18T08:09:56;39.23;;;19.57;;
1679;SDS011;838;51.794;12.258;2022-12-18T08:12:22;33.07;;;17.60;;
1679;SDS011;838;51.794;12.258;2022-12-18T08:14:48;35.70;;;17.33;;
1679;SDS011;838;51.794;12.258;2022-12-18T08:17:13;37.70;;;19.67;;
1679;SDS011;838;51.794;12.258;2022-12-18T08:19:39;48.90;;;21.13;;
1679;SDS011;838;51.794;12.258;2022-12-18T08:22:04;43.80;;;19.83;;
1679;SDS011;838;51.794;12.258;2022-12-18T08:24:30;43.17;;;22.23;;
1679;SDS011;838;51.794;12.258;2022-12-18T08:26:56;47.23;;;22.43;;
1679;SDS011;838;51.794;12.258;2022-12-18T08:29:22;50.97;;;22.57;;
1679;SDS011;838;51.794;12.258;2022-12-18T08:31:48;46.13;;;21.50;;
1679;SDS011;838;51.794;12.258;2022-12-18T08:34:14;44.17;;;20.07;;
1679;SDS011;838;51.794;12.258;2022-12-18T08:36:39;50.23;;;20.27;;
1679;SDS011;838;51.794;12.258;2022-12-18T08:39:05;43.33;;;20.17;;
1679;SDS011;838;51.794;12.258;2022-12-18T08:41:31;41.80;;;20.50;;
1679;SDS011;838;51.794;12.258;2022-12-18T08:43:57;45.10;;;20.57;;
1679;SDS011;838;51.794;12.258;2022-12-18T08:46:41;42.87;;;19.90;;
1679;SDS011;838;51.794;12.258;2022-12-18T08:49:08;46.40;;;22.20;;
1679;SDS011;838;51.794;12.258;2022-12-18T08:51:35;41.33;;;21.50;;
1679;SDS011;838;51.794;12.258;2022-12-18T08:54:01;37.33;;;21.37;;
1679;SDS011;838;51.794;12.258;2022-12-18T08:56:27;47.20;;;22.47;;
1679;SDS011;838;51.794;12.258;2022-12-18T08:58:54;35.93;;;19.20;;
1679;SDS011;838;51.794;12.258;2022-12-18T09:01:20;44.40;;;19.90;;
1679;SDS011;838;51.794;12.258;2022-12-18T09:03:47;38.67;;;19.10;;
1679;SDS011;838;51.794;12.258;2022-12-18T09:06:16;38.40;;;19.43;;
1679;SDS011;838;51.794;12.258;2022-12-18T09:08:43;41.13;;;20.27;;
1679;SDS011;838;51.794;12.258;2022-12-18T09:11:14;38.83;;;18.80;;
1679;SDS011;838;51.794;12.258;2022-12-18T09:13:47;35.67;;;18.90;;
1679;SDS011;838;51.794;12.258;2022-12-18T09:16:13;31.67;;;18.10;;
1679;SDS011;838;51.794;12.258;2022-12-18T09:18:39;36.97;;;19.07;;
1679;SDS011;838;51.794;12.258;2022-12-18T09:21:11;43.53;;;20.30;;
1679;SDS011;838;51.794;12.258;2022-12-18T09:23:42;46.77;;;21.23;;
1679;SDS011;838;51.794;12.258;2022-12-18T09:26:09;39.97;;;17.33;;
1679;SDS011;838;51.794;12.258;2022-12-18T09:28:35;30.57;;;18.60;;
1679;SDS011;838;51.794;12.258;2022-12-18T09:31:07;33.53;;;14.10;;
1679;SDS011;838;51.794;12.258;2022-12-18T09:33:36;24.87;;;13.57;;
1679;SDS011;838;51.794;12.258;2022-12-18T09:36:05;28.17;;;13.13;;
1679;SDS011;838;51.794;12.258;2022-12-18T09:38:33;34.03;;;14.13;;
1679;SDS011;838;51.794;12.258;2022-12-18T09:41:03;26.53;;;13.30;;
1679;SDS011;838;51.794;12.258;2022-12-18T09:43:49;35.27;;;16.27;;
1679;SDS011;838;51.794;12.258;2022-12-18T09:46:23;32.57;;;18.30;;
1679;SDS011;838;51.794;12.258;2022-12-18T09:48:56;27.83;;;16.27;;
1679;SDS011;838;51.794;12.258;2022-12-18T09:51:32;41.77;;;21.33;;
1679;SDS011;838;51.794;12.258;2022-12-18T09:54:06;34.40;;;18.40;;
1679;SDS011;838;51.794;12.258;2022-12-18T09:56:38;39.23;;;18.83;;
1679;SDS011;838;51.794;12.258;2022-12-18T09:59:53;29.17;;;14.37;;
1679;SDS011;838;51.794;12.258;2022-12-18T10:01:58;30.60;;;18.67;;
1679;SDS011;838;51.794;12.258;2022-12-18T10:04:24;44.63;;;21.70;;
1679;SDS011;838;51.794;12.258;2022-12-18T10:07:00;31.10;;;17.77;;
1679;SDS011;838;51.794;12.258;2022-12-18T10:09:37;36.40;;;19.10;;
1679;SDS011;838;51.794;12.258;2022-12-18T10:12:32;31.57;;;20.00;;
1679;SDS011;838;51.794;12.258;2022-12-18T10:15:13;30.43;;;18.20;;
1679;SDS011;838;51.794;12.258;2022-12-18T10:21:04;36.10;;;18.20;;
1679;SDS011;838;51.794;12.258;2022-12-18T10:26:31;34.67;;;18.93;;
1679;SDS011;838;51.794;12.258;2022-12-18T10:28:57;27.77;;;17.43;;
1679;SDS011;838;51.794;12.258;2022-12-18T10:31:24;32.00;;;19.00;;
1679;SDS011;838;51.794;12.258;2022-12-18T10:33:50;35.13;;;18.03;;
1679;SDS011;838;51.794;12.258;2022-12-18T10:36:18;35.00;;;20.33;;
1679;SDS011;838;51.794;12.258;2022-12-18T10:38:45;29.67;;;17.53;;
1679;SDS011;838;51.794;12.258;2022-12-18T10:46:41;29.40;;;19.00;;
1679;SDS011;838;51.794;12.258;2022-12-18T10:49:18;35.80;;;18.00;;
1679;SDS011;838;51.794;12.258;2022-12-18T10:52:03;30.93;;;18.47;;
1679;SDS011;838;51.794;12.258;2022-12-18T10:54:52;26.97;;;17.10;;
1679;SDS011;838;51.794;12.258;2022-12-18T11:03:07;30.80;;;17.50;;
1679;SDS011;838;51.794;12.258;2022-12-18T11:06:12;27.80;;;17.87;;
1679;SDS011;838;51.794;12.258;2022-12-18T11:08:39;35.23;;;17.97;;
1679;SDS011;838;51.794;12.258;2022-12-18T11:11:07;25.43;;;16.83;;
1679;SDS011;838;51.794;12.258;2022-12-18T11:13:48;34.87;;;17.73;;
1679;SDS011;838;51.794;12.258;2022-12-18T11:16:27;31.43;;;18.13;;
1679;SDS011;838;51.794;12.258;2022-12-18T11:18:59;29.53;;;17.03;;
1679;SDS011;838;51.794;12.258;2022-12-18T11:21:42;24.93;;;15.30;;
1679;SDS011;838;51.794;12.258;2022-12-18T11:24:15;25.73;;;15.40;;
1679;SDS011;838;51.794;12.258;2022-12-18T11:26:47;25.10;;;16.53;;
1679;SDS011;838;51.794;12.258;2022-12-18T11:29:17;25.27;;;15.87;;
1679;SDS011;838;51.794;12.258;2022-12-18T11:31:48;32.10;;;16.60;;
1679;SDS011;838;51.794;12.258;2022-12-18T11:34:26;27.07;;;15.17;;
1679;SDS011;838;51.794;12.258;2022-12-18T11:36:55;25.63;;;15.87;;
1679;SDS011;838;51.794;12.258;2022-12-18T11:39:31;23.40;;;17.00;;
1679;SDS011;838;51.794;12.258;2022-12-18T11:42:14;24.20;;;15.03;;
1679;SDS011;838;51.794;12.258;2022-12-18T11:50:19;28.70;;;16.70;;
1679;SDS011;838;51.794;12.258;2022-12-18T11:52:48;22.27;;;14.20;;
1679;SDS011;838;51.794;12.258;2022-12-18T11:55:15;27.97;;;15.40;;
1679;SDS011;838;51.794;12.258;2022-12-18T11:58:05;26.67;;;15.83;;
1679;SDS011;838;51.794;12.258;2022-12-18T12:00:42;27.57;;;16.43;;
1679;SDS011;838;51.794;12.258;2022-12-18T12:06:13;26.13;;;14.80;;
1679;SDS011;838;51.794;12.258;2022-12-18T12:17:06;25.63;;;15.53;;
1679;SDS011;838;51.794;12.258;2022-12-18T12:19:53;27.70;;;15.20;;
1679;SDS011;838;51.794;12.258;2022-12-18T12:25:16;28.40;;;14.83;;
1679;SDS011;838;51.794;12.258;2022-12-18T12:39:26;23.20;;;13.43;;
1679;SDS011;838;51.794;12.258;2022-12-18T12:41:56;21.77;;;12.90;;
1679;SDS011;838;51.794;12.258;2022-12-18T12:44:46;26.93;;;15.20;;
1679;SDS011;838;51.794;12.258;2022-12-18T12:47:16;24.90;;;13.83;;
1679;SDS011;838;51.794;12.258;2022-12-18T12:49:46;22.67;;;12.73;;
1679;SDS011;838;51.794;12.258;2022-12-18T12:52:17;24.60;;;14.50;;
1679;SDS011;838;51.794;12.258;2022-12-18T12:54:54;27.83;;;14.20;;
1679;SDS011;838;51.794;12.258;2022-12-18T12:57:26;23.27;;;14.40;;
1679;SDS011;838;51.794;12.258;2022-12-18T13:08:59;22.80;;;13.17;;
1679;SDS011;838;51.794;12.258;2022-12-18T13:14:33;23.67;;;13.57;;
1679;SDS011;838;51.794;12.258;2022-12-18T13:17:14;26.83;;;12.77;;
1679;SDS011;838;51.794;12.258;2022-12-18T13:19:49;22.83;;;13.07;;
1679;SDS011;838;51.794;12.258;2022-12-18T13:22:21;26.63;;;14.37;;
1679;SDS011;838;51.794;12.258;2022-12-18T13:24:49;29.50;;;14.60;;
1679;SDS011;838;51.794;12.258;2022-12-18T13:43:28;31.00;;;14.47;;
1679;SDS011;838;51.794;12.258;2022-12-18T13:46:01;33.27;;;15.47;;
1679;SDS011;838;51.794;12.258;2022-12-18T13:48:28;29.93;;;16.60;;
1679;SDS011;838;51.794;12.258;2022-12-18T13:51:01;28.10;;;15.90;;
1679;SDS011;838;51.794;12.258;2022-12-18T13:53:39;28.40;;;15.97;;
1679;SDS011;838;51.794;12.258;2022-12-18T13:56:09;26.80;;;14.87;;
1679;SDS011;838;51.794;12.258;2022-12-18T13:58:41;24.77;;;13.60;;
1679;SDS011;838;51.794;12.258;2022-12-18T14:01:21;31.33;;;15.13;;
1679;SDS011;838;51.794;12.258;2022-12-18T14:03:48;25.20;;;14.60;;
1679;SDS011;838;51.794;12.258;2022-12-18T14:06:13;35.10;;;16.97;;
1679;SDS011;838;51.794;12.258;2022-12-18T14:08:41;29.23;;;16.33;;
1679;SDS011;838;51.794;12.258;2022-12-18T14:11:17;29.80;;;15.37;;
1679;SDS011;838;51.794;12.258;2022-12-18T14:13:45;30.97;;;16.47;;
1679;SDS011;838;51.794;12.258;2022-12-18T14:16:12;27.37;;;14.80;;
1679;SDS011;838;51.794;12.258;2022-12-18T14:21:15;28.20;;;14.57;;
1679;SDS011;838;51.794;12.258;2022-12-18T14:26:43;24.70;;;13.10;;
1679;SDS011;838;51.794;12.258;2022-12-18T14:29:26;31.67;;;16.17;;
1679;SDS011;838;51.794;12.258;2022-12-18T14:34:41;30.13;;;15.37;;
1679;SDS011;838;51.794;12.258;2022-12-18T14:37:10;24.10;;;14.00;;
1679;SDS011;838;51.794;12.258;2022-12-18T14:39:38;29.70;;;15.60;;
1679;SDS011;838;51.794;12.258;2022-12-18T14:42:04;28.83;;;14.73;;
1679;SDS011;838;51.794;12.258;2022-12-18T14:44:30;30.47;;;15.67;;
1679;SDS011;838;51.794;12.258;2022-12-18T14:46:56;29.47;;;15.73;;
1679;SDS011;838;51.794;12.258;2022-12-18T14:49:31;31.37;;;17.20;;
1679;SDS011;838;51.794;12.258;2022-12-18T14:52:00;27.77;;;15.30;;
1679;SDS011;838;51.794;12.258;2022-12-18T14:54:28;29.20;;;14.30;;
1679;SDS011;838;51.794;12.258;2022-12-18T14:56:57;29.27;;;14.50;;
1679;SDS011;838;51.794;12.258;2022-12-18T14:59:30;24.50;;;13.20;;
1679;SDS011;838;51.794;12.258;2022-12-18T15:04:59;26.27;;;13.03;;
1679;SDS011;838;51.794;12.258;2022-12-18T15:07:26;32.60;;;15.83;;
1679;SDS011;838;51.794;12.258;2022-12-18T15:10:10;31.13;;;15.27;;
1679;SDS011;838;51.794;12.258;2022-12-18T15:18:04;30.57;;;15.50;;
1679;SDS011;838;51.794;12.258;2022-12-18T15:20:38;26.10;;;14.97;;
1679;SDS011;838;51.794;12.258;2022-12-18T15:23:05;25.43;;;15.20;;
1679;SDS011;838;51.794;12.258;2022-12-18T15:25:58;30.97;;;14.50;;
1679;SDS011;838;51.794;12.258;2022-12-18T15:28:36;24.30;;;12.60;;
1679;SDS011;838;51.794;12.258;2022-12-18T15:33:35;27.57;;;14.33;;
1679;SDS011;838;51.794;12.258;2022-12-18T15:36:07;30.20;;;14.20;;
1679;SDS011;838;51.794;12.258;2022-12-18T15:38:34;28.10;;;14.17;;
1679;SDS011;838;51.794;12.258;2022-12-18T15:41:00;33.20;;;15.83;;
1679;SDS011;838;51.794;12.258;2022-12-18T15:43:28;24.60;;;14.50;;
1679;SDS011;838;51.794;12.258;2022-12-18T15:46:04;30.90;;;15.63;;
1679;SDS011;838;51.794;12.258;2022-12-18T15:48:35;29.40;;;14.63;;
1679;SDS011;838;51.794;12.258;2022-12-18T15:51:05;25.43;;;14.30;;
1679;SDS011;838;51.794;12.258;2022-12-18T15:53:36;29.40;;;15.20;;
1679;SDS011;838;51.794;12.258;2022-12-18T15:56:04;33.20;;;14.40;;
1679;SDS011;838;51.794;12.258;2022-12-18T15:58:48;25.43;;;16.07;;
1679;SDS011;838;51.794;12.258;2022-12-18T16:01:14;26.37;;;15.27;;
1679;SDS011;838;51.794;12.258;2022-12-18T16:03:46;30.63;;;16.40;;
1679;SDS011;838;51.794;12.258;2022-12-18T16:06:12;27.97;;;14.97;;
1679;SDS011;838;51.794;12.258;2022-12-18T16:08:37;29.37;;;14.67;;
1679;SDS011;838;51.794;12.258;2022-12-18T16:11:03;29.47;;;15.07;;
1679;SDS011;838;51.794;12.258;2022-12-18T16:13:29;32.30;;;16.57;;
1679;SDS011;838;51.794;12.258;2022-12-18T16:15:55;27.87;;;16.17;;
1679;SDS011;838;51.794;12.258;2022-12-18T16:18:20;32.80;;;16.67;;
1679;SDS011;838;51.794;12.258;2022-12-18T16:20:46;38.87;;;17.40;;
1679;SDS011;838;51.794;12.258;2022-12-18T16:23:12;32.00;;;17.07;;
1679;SDS011;838;51.794;12.258;2022-12-18T16:25:38;37.30;;;16.70;;
1679;SDS011;838;51.794;12.258;2022-12-18T16:28:03;34.20;;;17.80;;
1679;SDS011;838;51.794;12.258;2022-12-18T16:30:30;30.10;;;15.70;;
1679;SDS011;838;51.794;12.258;2022-12-18T16:32:56;32.10;;;17.10;;
1679;SDS011;838;51.794;12.258;2022-12-18T16:35:22;26.57;;;15.50;;
1679;SDS011;838;51.794;12.258;2022-12-18T16:37:48;42.33;;;18.63;;
1679;SDS011;838;51.794;12.258;2022-12-18T16:40:15;32.80;;;17.20;;
1679;SDS011;838;51.794;12.258;2022-12-18T16:42:42;37.13;;;17.23;;
1679;SDS011;838;51.794;12.258;2022-12-18T16:45:11;29.27;;;14.07;;
1679;SDS011;838;51.794;12.258;2022-12-18T16:47:39;25.23;;;13.63;;
1679;SDS011;838;51.794;12.258;2022-12-18T16:50:05;35.77;;;18.03;;
1679;SDS011;838;51.794;12.258;2022-12-18T16:52:32;30.73;;;17.40;;
1679;SDS011;838;51.794;12.258;2022-12-18T16:54:58;28.57;;;16.40;;
1679;SDS011;838;51.794;12.258;2022-12-18T16:57:24;33.03;;;16.33;;
1679;SDS011;838;51.794;12.258;2022-12-18T16:59:50;38.17;;;18.77;;